sensor_id;sensor_type;location;lat;lon;timestamp;pressure;altitude;pressure_sealevel;temperature;humidity
35806;BME280;21925;44.608;11.580;2023-07-13T00:02:16;101262.56;;;29.61;82.42
35806;BME280;21925;44.608;11.580;2023-07-13T00:04:42;101268.31;;;29.49;83.30
35806;BME280;21925;44.608;11.580;2023-07-13T00:07:08;101267.41;;;29.52;90.09
35806;BME280;21925;44.608;11.580;2023-07-13T00:09:34;101277.53;;;29.40;93.64
35806;BME280;21925;44.608;11.580;2023-07-13T00:12:00;101272.81;;;29.37;96.41
35806;BME280;21925;44.608;11.580;2023-07-13T00:14:27;101273.31;;;29.45;97.21
35806;BME280;21925;44.608;11.580;2023-07-13T00:16:53;101274.84;;;29.37;100.00
35806;BME280;21925;44.608;11.580;2023-07-13T00:19:19;101284.34;;;29.52;100.00
35806;BME280;21925;44.608;11.580;2023-07-13T00:21:45;101280.00;;;29.60;100.00
35806;BME280;21925;44.608;11.580;2023-07-13T00:24:13;101285.13;;;29.52;100.00
35806;BME280;21925;44.608;11.580;2023-07-13T00:26:40;101282.56;;;29.45;100.00
35806;BME280;21925;44.608;11.580;2023-07-13T00:29:06;101250.72;;;29.45;100.00
35806;BME280;21925;44.608;11.580;2023-07-13T00:31:35;101255.16;;;29.55;100.00
35806;BME280;21925;44.608;11.580;2023-07-13T00:34:01;101280.69;;;29.42;100.00
35806;BME280;21925;44.608;11.580;2023-07-13T00:36:27;101263.94;;;29.57;100.00
35806;BME280;21925;44.608;11.580;2023-07-13T00:38:53;101273.97;;;29.49;100.00
35806;BME280;21925;44.608;11.580;2023-07-13T00:41:19;101279.06;;;29.63;100.00
35806;BME280;21925;44.608;11.580;2023-07-13T00:43:44;101275.91;;;29.61;100.00
35806;BME280;21925;44.608;11.580;2023-07-13T00:46:16;101284.16;;;29.77;100.00
35806;BME280;21925;44.608;11.580;2023-07-13T00:48:42;101287.69;;;29.59;100.00
35806;BME280;21925;44.608;11.580;2023-07-13T00:51:10;101300.25;;;28.94;100.00
35806;BME280;21925;44.608;11.580;2023-07-13T00:53:36;101290.13;;;28.84;100.00
35806;BME280;21925;44.608;11.580;2023-07-13T00:56:02;101306.97;;;28.75;100.00
35806;BME280;21925;44.608;11.580;2023-07-13T00:58:29;101312.75;;;28.59;100.00
35806;BME280;21925;44.608;11.580;2023-07-13T01:00:56;101304.16;;;28.41;100.00
35806;BME280;21925;44.608;11.580;2023-07-13T01:03:22;101304.72;;;28.24;100.00
35806;BME280;21925;44.608;11.580;2023-07-13T01:05:48;101309.94;;;28.26;100.00
35806;BME280;21925;44.608;11.580;2023-07-13T01:08:15;101305.72;;;28.42;100.00
35806;BME280;21925;44.608;11.580;2023-07-13T01:10:41;101288.84;;;28.51;100.00
35806;BME280;21925;44.608;11.580;2023-07-13T01:13:10;101296.38;;;28.67;100.00
35806;BME280;21925;44.608;11.580;2023-07-13T01:15:44;101291.00;;;28.94;100.00
35806;BME280;21925;44.608;11.580;2023-07-13T01:18:15;101298.81;;;28.77;100.00
35806;BME280;21925;44.608;11.580;2023-07-13T01:21:00;101303.41;;;28.62;100.00
35806;BME280;21925;44.608;11.580;2023-07-13T01:23:29;101314.22;;;28.64;100.00
35806;BME280;21925;44.608;11.580;2023-07-13T01:25:55;101318.25;;;28.41;100.00
35806;BME280;21925;44.608;11.580;2023-07-13T01:28:22;101328.59;;;28.44;100.00
35806;BME280;21925;44.608;11.580;2023-07-13T01:30:48;101309.69;;;28.32;100.00
35806;BME280;21925;44.608;11.580;2023-07-13T01:33:16;101318.06;;;28.24;100.00
35806;BME280;21925;44.608;11.580;2023-07-13T01:35:44;101315.69;;;28.22;100.00
35806;BME280;21925;44.608;11.580;2023-07-13T01:38:12;101324.25;;;28.31;100.00
35806;BME280;21925;44.608;11.580;2023-07-13T01:40:40;101325.69;;;28.35;100.00
35806;BME280;21925;44.608;11.580;2023-07-13T01:43:06;101318.78;;;28.49;100.00
35806;BME280;21925;44.608;11.580;2023-07-13T01:45:32;101326.69;;;28.54;100.00
35806;BME280;21925;44.608;11.580;2023-07-13T01:47:58;101318.47;;;28.47;100.00
35806;BME280;21925;44.608;11.580;2023-07-13T01:50:24;101325.31;;;28.58;100.00
35806;BME280;21925;44.608;11.580;2023-07-13T01:52:52;101317.50;;;28.62;100.00
35806;BME280;21925;44.608;11.580;2023-07-13T01:55:18;101318.19;;;28.66;100.00
35806;BME280;21925;44.608;11.580;2023-07-13T01:57:44;101313.75;;;28.78;100.00
35806;BME280;21925;44.608;11.580;2023-07-13T02:00:10;101303.41;;;28.96;100.00
35806;BME280;21925;44.608;11.580;2023-07-13T02:02:45;101319.50;;;28.74;100.00
35806;BME280;21925;44.608;11.580;2023-07-13T02:05:12;101317.06;;;28.98;100.00
35806;BME280;21925;44.608;11.580;2023-07-13T02:07:38;101310.50;;;29.22;100.00
35806;BME280;21925;44.608;11.580;2023-07-13T02:10:05;101288.06;;;29.40;100.00
35806;BME280;21925;44.608;11.580;2023-07-13T02:12:31;101294.34;;;29.22;100.00
35806;BME280;21925;44.608;11.580;2023-07-13T02:14:57;101271.47;;;29.08;100.00
35806;BME280;21925;44.608;11.580;2023-07-13T02:17:22;101278.91;;;28.93;100.00
35806;BME280;21925;44.608;11.580;2023-07-13T02:19:48;101287.53;;;29.11;97.74
35806;BME280;21925;44.608;11.580;2023-07-13T02:22:13;101298.53;;;28.97;97.77
35806;BME280;21925;44.608;11.580;2023-07-13T02:24:39;101303.81;;;28.73;99.33
35806;BME280;21925;44.608;11.580;2023-07-13T02:27:05;101296.38;;;28.67;100.00
35806;BME280;21925;44.608;11.580;2023-07-13T02:29:30;101293.09;;;28.68;99.96
35806;BME280;21925;44.608;11.580;2023-07-13T02:31:56;101298.94;;;29.08;95.00
35806;BME280;21925;44.608;11.580;2023-07-13T02:34:23;101289.69;;;29.07;96.42
35806;BME280;21925;44.608;11.580;2023-07-13T02:36:48;101283.44;;;29.12;95.77
35806;BME280;21925;44.608;11.580;2023-07-13T02:39:14;101301.16;;;29.34;94.28
35806;BME280;21925;44.608;11.580;2023-07-13T02:41:41;101297.50;;;29.24;94.85
35806;BME280;21925;44.608;11.580;2023-07-13T02:44:07;101310.72;;;29.27;94.34
35806;BME280;21925;44.608;11.580;2023-07-13T02:46:36;101303.63;;;29.23;94.19
35806;BME280;21925;44.608;11.580;2023-07-13T02:49:03;101303.84;;;29.16;93.16
35806;BME280;21925;44.608;11.580;2023-07-13T02:51:30;101298.28;;;29.25;92.49
35806;BME280;21925;44.608;11.580;2023-07-13T02:54:02;101302.50;;;29.42;90.97
35806;BME280;21925;44.608;11.580;2023-07-13T02:56:29;101294.72;;;29.33;90.64
35806;BME280;21925;44.608;11.580;2023-07-13T02:58:56;101301.84;;;29.38;91.69
35806;BME280;21925;44.608;11.580;2023-07-13T03:01:22;101301.38;;;29.39;90.39
35806;BME280;21925;44.608;11.580;2023-07-13T03:03:48;101310.44;;;29.34;90.79
35806;BME280;21925;44.608;11.580;2023-07-13T03:06:15;101305.94;;;29.37;91.75
35806;BME280;21925;44.608;11.580;2023-07-13T03:08:47;101302.75;;;29.35;91.55
35806;BME280;21925;44.608;11.580;2023-07-13T03:11:17;101307.03;;;29.18;93.03
35806;BME280;21925;44.608;11.580;2023-07-13T03:13:46;101294.41;;;29.10;92.16
35806;BME280;21925;44.608;11.580;2023-07-13T03:16:13;101286.81;;;28.98;91.79
35806;BME280;21925;44.608;11.580;2023-07-13T03:18:42;101293.44;;;28.70;94.15
35806;BME280;21925;44.608;11.580;2023-07-13T03:21:10;101306.66;;;28.73;92.71
35806;BME280;21925;44.608;11.580;2023-07-13T03:23:35;101295.13;;;28.22;94.57
35806;BME280;21925;44.608;11.580;2023-07-13T03:26:07;101293.66;;;28.29;96.20
35806;BME280;21925;44.608;11.580;2023-07-13T03:28:33;101280.16;;;28.58;94.03
35806;BME280;21925;44.608;11.580;2023-07-13T03:33:27;101282.97;;;28.92;92.72
35806;BME280;21925;44.608;11.580;2023-07-13T03:35:53;101282.75;;;28.99;92.36
35806;BME280;21925;44.608;11.580;2023-07-13T03:38:18;101287.38;;;28.93;92.45
35806;BME280;21925;44.608;11.580;2023-07-13T03:40:45;101287.63;;;28.86;94.19
35806;BME280;21925;44.608;11.580;2023-07-13T03:43:11;101278.00;;;28.96;91.57
35806;BME280;21925;44.608;11.580;2023-07-13T03:45:38;101283.31;;;28.94;92.47
35806;BME280;21925;44.608;11.580;2023-07-13T03:48:04;101298.53;;;28.97;92.30
35806;BME280;21925;44.608;11.580;2023-07-13T03:50:31;101307.94;;;28.94;94.32
35806;BME280;21925;44.608;11.580;2023-07-13T03:52:57;101305.50;;;28.83;96.06
35806;BME280;21925;44.608;11.580;2023-07-13T03:55:23;101290.13;;;28.84;95.17
35806;BME280;21925;44.608;11.580;2023-07-13T03:57:58;101295.41;;;28.95;94.80
35806;BME280;21925;44.608;11.580;2023-07-13T04:00:24;101280.69;;;29.00;94.88
35806;BME280;21925;44.608;11.580;2023-07-13T04:02:53;101280.31;;;28.76;92.14
35806;BME280;21925;44.608;11.580;2023-07-13T04:05:18;101262.03;;;28.81;95.48
35806;BME280;21925;44.608;11.580;2023-07-13T04:07:45;101240.75;;;28.89;95.40
35806;BME280;21925;44.608;11.580;2023-07-13T04:10:11;101262.38;;;28.70;97.08
35806;BME280;21925;44.608;11.580;2023-07-13T04:12:36;101291.78;;;28.94;97.18
35806;BME280;21925;44.608;11.580;2023-07-13T04:15:03;101280.09;;;28.83;98.47
35806;BME280;21925;44.608;11.580;2023-07-13T04:17:29;101314.72;;;28.96;97.45
35806;BME280;21925;44.608;11.580;2023-07-13T04:19:55;101299.00;;;28.95;99.14
35806;BME280;21925;44.608;11.580;2023-07-13T04:22:21;101293.97;;;29.12;98.65
35806;BME280;21925;44.608;11.580;2023-07-13T04:24:46;101297.38;;;29.28;97.74
35806;BME280;21925;44.608;11.580;2023-07-13T04:27:12;101305.06;;;28.26;100.00
35806;BME280;21925;44.608;11.580;2023-07-13T04:29:37;101295.50;;;27.86;100.00
35806;BME280;21925;44.608;11.580;2023-07-13T04:32:03;101290.72;;;27.96;100.00
35806;BME280;21925;44.608;11.580;2023-07-13T04:34:29;101298.59;;;28.50;100.00
35806;BME280;21925;44.608;11.580;2023-07-13T04:36:55;101302.81;;;28.33;100.00
35806;BME280;21925;44.608;11.580;2023-07-13T04:39:20;101340.72;;;28.32;100.00
35806;BME280;21925;44.608;11.580;2023-07-13T04:41:46;101344.88;;;28.16;100.00
35806;BME280;21925;44.608;11.580;2023-07-13T04:44:12;101333.47;;;28.07;100.00
35806;BME280;21925;44.608;11.580;2023-07-13T04:46:37;101340.72;;;27.95;100.00
35806;BME280;21925;44.608;11.580;2023-07-13T04:49:03;101351.97;;;27.70;100.00
35806;BME280;21925;44.608;11.580;2023-07-13T04:51:29;101359.03;;;27.62;100.00
35806;BME280;21925;44.608;11.580;2023-07-13T04:53:55;101362.47;;;28.07;100.00
35806;BME280;21925;44.608;11.580;2023-07-13T04:56:20;101355.00;;;27.76;100.00
35806;BME280;21925;44.608;11.580;2023-07-13T04:58:46;101358.06;;;27.81;100.00
35806;BME280;21925;44.608;11.580;2023-07-13T05:01:12;101355.38;;;27.78;100.00
35806;BME280;21925;44.608;11.580;2023-07-13T05:03:39;101363.72;;;27.81;100.00
35806;BME280;21925;44.608;11.580;2023-07-13T05:06:07;101357.97;;;28.10;100.00
35806;BME280;21925;44.608;11.580;2023-07-13T05:08:35;101332.91;;;27.87;100.00
35806;BME280;21925;44.608;11.580;2023-07-13T05:11:02;101327.38;;;27.83;100.00
35806;BME280;21925;44.608;11.580;2023-07-13T05:13:29;101331.34;;;27.86;100.00
35806;BME280;21925;44.608;11.580;2023-07-13T05:15:59;101337.88;;;27.83;100.00
35806;BME280;21925;44.608;11.580;2023-07-13T05:18:26;101344.66;;;28.10;100.00
35806;BME280;21925;44.608;11.580;2023-07-13T05:21:07;101355.25;;;28.06;100.00
35806;BME280;21925;44.608;11.580;2023-07-13T05:23:34;101345.88;;;27.97;100.00
35806;BME280;21925;44.608;11.580;2023-07-13T05:26:01;101349.19;;;28.32;99.47
35806;BME280;21925;44.608;11.580;2023-07-13T05:28:27;101357.41;;;28.39;98.79
35806;BME280;21925;44.608;11.580;2023-07-13T05:30:53;101355.06;;;28.26;98.09
35806;BME280;21925;44.608;11.580;2023-07-13T05:33:20;101358.41;;;27.96;98.27
35806;BME280;21925;44.608;11.580;2023-07-13T05:35:46;101358.19;;;28.03;100.00
35806;BME280;21925;44.608;11.580;2023-07-13T05:38:12;101348.56;;;28.50;96.16
35806;BME280;21925;44.608;11.580;2023-07-13T05:40:38;101329.66;;;28.38;95.64
35806;BME280;21925;44.608;11.580;2023-07-13T05:43:04;101324.44;;;28.36;95.07
35806;BME280;21925;44.608;11.580;2023-07-13T05:45:30;101317.34;;;28.20;97.79
35806;BME280;21925;44.608;11.580;2023-07-13T05:47:56;101312.59;;;28.41;96.32
35806;BME280;21925;44.608;11.580;2023-07-13T05:50:22;101330.88;;;28.49;96.21
35806;BME280;21925;44.608;11.580;2023-07-13T05:52:47;101344.97;;;28.49;96.21
35806;BME280;21925;44.608;11.580;2023-07-13T05:55:14;101347.91;;;28.46;97.01
35806;BME280;21925;44.608;11.580;2023-07-13T05:57:40;101354.13;;;28.28;95.41
35806;BME280;21925;44.608;11.580;2023-07-13T06:00:07;101356.78;;;28.69;94.54
35806;BME280;21925;44.608;11.580;2023-07-13T06:02:42;101351.34;;;28.87;92.08
35806;BME280;21925;44.608;11.580;2023-07-13T06:05:08;101350.00;;;28.79;91.23
35806;BME280;21925;44.608;11.580;2023-07-13T06:07:33;101343.03;;;28.59;94.34
35806;BME280;21925;44.608;11.580;2023-07-13T06:09:59;101351.59;;;28.80;94.49
35806;BME280;21925;44.608;11.580;2023-07-13T06:12:26;101350.69;;;28.83;92.55
35806;BME280;21925;44.608;11.580;2023-07-13T06:14:51;101356.63;;;28.85;92.78
35806;BME280;21925;44.608;11.580;2023-07-13T06:17:17;101368.44;;;29.05;91.80
35806;BME280;21925;44.608;11.580;2023-07-13T06:19:43;101388.53;;;29.07;92.30
35806;BME280;21925;44.608;11.580;2023-07-13T06:22:09;101374.59;;;29.12;92.47
35806;BME280;21925;44.608;11.580;2023-07-13T06:24:34;101368.59;;;29.23;92.63
35806;BME280;21925;44.608;11.580;2023-07-13T06:27:00;101360.63;;;29.30;91.92
35806;BME280;21925;44.608;11.580;2023-07-13T06:29:25;101372.25;;;29.11;92.37
35806;BME280;21925;44.608;11.580;2023-07-13T06:31:51;101367.72;;;29.35;91.60
35806;BME280;21925;44.608;11.580;2023-07-13T06:34:17;101349.56;;;29.36;92.13
35806;BME280;21925;44.608;11.580;2023-07-13T06:36:43;101355.75;;;29.43;92.63
35806;BME280;21925;44.608;11.580;2023-07-13T06:39:09;101345.56;;;29.46;93.56
35806;BME280;21925;44.608;11.580;2023-07-13T06:41:35;101353.03;;;29.92;91.17
35806;BME280;21925;44.608;11.580;2023-07-13T06:44:01;101355.44;;;30.02;90.12
35806;BME280;21925;44.608;11.580;2023-07-13T06:46:28;101367.44;;;30.06;87.44
35806;BME280;21925;44.608;11.580;2023-07-13T06:48:55;101358.75;;;30.00;87.71
35806;BME280;21925;44.608;11.580;2023-07-13T06:51:21;101359.44;;;30.53;84.98
35806;BME280;21925;44.608;11.580;2023-07-13T06:53:47;101364.97;;;30.65;84.25
35806;BME280;21925;44.608;11.580;2023-07-13T06:56:13;101380.22;;;30.19;88.45
35806;BME280;21925;44.608;11.580;2023-07-13T06:58:39;101391.59;;;30.46;87.02
35806;BME280;21925;44.608;11.580;2023-07-13T07:01:05;101409.72;;;30.09;89.24
35806;BME280;21925;44.608;11.580;2023-07-13T07:03:31;101402.91;;;29.77;92.34
35806;BME280;21925;44.608;11.580;2023-07-13T07:06:26;101378.72;;;30.36;88.83
35806;BME280;21925;44.608;11.580;2023-07-13T07:08:53;101382.53;;;30.12;91.40
35806;BME280;21925;44.608;11.580;2023-07-13T07:11:21;101368.94;;;30.37;88.98
35806;BME280;21925;44.608;11.580;2023-07-13T07:13:48;101377.13;;;30.35;88.64
35806;BME280;21925;44.608;11.580;2023-07-13T07:16:14;101378.94;;;30.11;89.77
35806;BME280;21925;44.608;11.580;2023-07-13T07:18:40;101377.38;;;30.19;88.59
35806;BME280;21925;44.608;11.580;2023-07-13T07:21:06;101366.72;;;30.32;88.23
35806;BME280;21925;44.608;11.580;2023-07-13T07:23:31;101362.59;;;30.15;89.89
35806;BME280;21925;44.608;11.580;2023-07-13T07:25:57;101391.13;;;29.99;91.15
35806;BME280;21925;44.608;11.580;2023-07-13T07:28:23;101390.25;;;29.90;93.30
35806;BME280;21925;44.608;11.580;2023-07-13T07:30:52;101380.91;;;30.41;88.63
35806;BME280;21925;44.608;11.580;2023-07-13T07:33:19;101388.25;;;30.60;89.47
35806;BME280;21925;44.608;11.580;2023-07-13T07:35:44;101374.75;;;30.82;88.54
35806;BME280;21925;44.608;11.580;2023-07-13T07:38:10;101360.91;;;31.02;84.41
35806;BME280;21925;44.608;11.580;2023-07-13T07:40:40;101372.91;;;31.33;80.46
35806;BME280;21925;44.608;11.580;2023-07-13T07:43:11;101374.00;;;31.17;81.59
35806;BME280;21925;44.608;11.580;2023-07-13T07:45:38;101386.75;;;31.22;82.20
35806;BME280;21925;44.608;11.580;2023-07-13T07:48:07;101380.75;;;31.47;80.63
35806;BME280;21925;44.608;11.580;2023-07-13T07:50:36;101383.91;;;31.13;80.94
35806;BME280;21925;44.608;11.580;2023-07-13T07:53:04;101382.03;;;31.19;79.48
35806;BME280;21925;44.608;11.580;2023-07-13T07:55:35;101385.78;;;31.69;79.04
35806;BME280;21925;44.608;11.580;2023-07-13T07:58:02;101374.94;;;31.59;79.92
35806;BME280;21925;44.608;11.580;2023-07-13T08:00:32;101379.19;;;31.63;80.07
35806;BME280;21925;44.608;11.580;2023-07-13T08:02:59;101389.66;;;31.90;77.95
35806;BME280;21925;44.608;11.580;2023-07-13T08:05:25;101376.22;;;31.99;77.47
35806;BME280;21925;44.608;11.580;2023-07-13T08:07:52;101395.88;;;32.62;77.71
35806;BME280;21925;44.608;11.580;2023-07-13T08:10:18;101392.59;;;32.22;76.07
35806;BME280;21925;44.608;11.580;2023-07-13T08:12:44;101383.88;;;32.58;76.15
35806;BME280;21925;44.608;11.580;2023-07-13T08:15:14;101375.25;;;32.76;73.72
35806;BME280;21925;44.608;11.580;2023-07-13T08:17:41;101374.94;;;32.74;75.10
35806;BME280;21925;44.608;11.580;2023-07-13T08:20:08;101367.56;;;32.67;75.63
35806;BME280;21925;44.608;11.580;2023-07-13T08:22:36;101362.31;;;32.75;74.23
35806;BME280;21925;44.608;11.580;2023-07-13T08:25:02;101366.91;;;32.72;75.74
35806;BME280;21925;44.608;11.580;2023-07-13T08:27:29;101370.75;;;33.07;75.65
35806;BME280;21925;44.608;11.580;2023-07-13T08:29:54;101347.13;;;33.01;74.21
35806;BME280;21925;44.608;11.580;2023-07-13T08:32:21;101350.72;;;33.11;75.71
35806;BME280;21925;44.608;11.580;2023-07-13T08:34:48;101352.03;;;33.01;76.36
35806;BME280;21925;44.608;11.580;2023-07-13T08:37:15;101365.66;;;33.34;74.91
35806;BME280;21925;44.608;11.580;2023-07-13T08:39:41;101363.22;;;33.85;74.90
35806;BME280;21925;44.608;11.580;2023-07-13T08:42:22;101367.13;;;33.30;73.28
35806;BME280;21925;44.608;11.580;2023-07-13T08:45:00;101373.16;;;33.09;74.52
35806;BME280;21925;44.608;11.580;2023-07-13T08:47:29;101387.56;;;32.96;74.43
35806;BME280;21925;44.608;11.580;2023-07-13T08:49:57;101392.03;;;32.65;75.40
35806;BME280;21925;44.608;11.580;2023-07-13T08:52:31;101398.78;;;32.44;77.07
35806;BME280;21925;44.608;11.580;2023-07-13T08:57:42;101443.34;;;32.52;76.70
35806;BME280;21925;44.608;11.580;2023-07-13T09:00:13;101440.03;;;32.63;76.90
35806;BME280;21925;44.608;11.580;2023-07-13T09:02:55;101399.59;;;32.36;77.30
35806;BME280;21925;44.608;11.580;2023-07-13T09:05:39;101360.34;;;31.93;79.70
35806;BME280;21925;44.608;11.580;2023-07-13T09:11:10;101393.59;;;31.92;80.38
35806;BME280;21925;44.608;11.580;2023-07-13T09:13:52;101421.69;;;31.81;80.68
35806;BME280;21925;44.608;11.580;2023-07-13T09:16:20;101426.56;;;31.81;82.04
35806;BME280;21925;44.608;11.580;2023-07-13T09:18:50;101413.22;;;31.55;82.72
35806;BME280;21925;44.608;11.580;2023-07-13T09:21:21;101415.41;;;31.60;82.10
35806;BME280;21925;44.608;11.580;2023-07-13T09:23:48;101411.00;;;31.59;82.50
35806;BME280;21925;44.608;11.580;2023-07-13T09:26:21;101395.41;;;31.45;81.88
35806;BME280;21925;44.608;11.580;2023-07-13T09:28:49;101387.06;;;31.33;83.57
35806;BME280;21925;44.608;11.580;2023-07-13T09:31:26;101394.63;;;31.18;84.03
35806;BME280;21925;44.608;11.580;2023-07-13T09:33:55;101416.34;;;31.21;85.70
35806;BME280;21925;44.608;11.580;2023-07-13T09:36:28;101417.91;;;31.13;86.24
35806;BME280;21925;44.608;11.580;2023-07-13T09:41:50;101402.13;;;30.94;84.87
35806;BME280;21925;44.608;11.580;2023-07-13T09:44:31;101398.31;;;30.79;85.98
35806;BME280;21925;44.608;11.580;2023-07-13T09:46:59;101411.25;;;30.98;86.92
35806;BME280;21925;44.608;11.580;2023-07-13T09:49:28;101419.00;;;31.15;88.19
35806;BME280;21925;44.608;11.580;2023-07-13T09:52:00;101408.63;;;31.12;90.09
35806;BME280;21925;44.608;11.580;2023-07-13T09:54:26;101384.16;;;30.79;91.73
35806;BME280;21925;44.608;11.580;2023-07-13T09:56:56;101358.34;;;30.59;93.73
35806;BME280;21925;44.608;11.580;2023-07-13T09:59:24;101285.66;;;30.47;92.49
35806;BME280;21925;44.608;11.580;2023-07-13T10:01:50;101266.13;;;30.40;94.15
35806;BME280;21925;44.608;11.580;2023-07-13T10:04:18;101317.69;;;30.26;98.32
35806;BME280;21925;44.608;11.580;2023-07-13T10:06:45;101353.91;;;30.10;98.33
35806;BME280;21925;44.608;11.580;2023-07-13T10:09:17;101349.56;;;30.27;95.77
35806;BME280;21925;44.608;11.580;2023-07-13T10:11:44;101300.69;;;30.26;93.60
35806;BME280;21925;44.608;11.580;2023-07-13T10:14:15;101267.38;;;30.30;94.48
35806;BME280;21925;44.608;11.580;2023-07-13T10:16:44;101283.72;;;30.26;95.36
35806;BME280;21925;44.608;11.580;2023-07-13T10:19:17;101354.41;;;30.66;94.54
35806;BME280;21925;44.608;11.580;2023-07-13T10:21:57;101425.09;;;30.96;94.40
35806;BME280;21925;44.608;11.580;2023-07-13T10:24:30;101472.69;;;31.01;91.88
35806;BME280;21925;44.608;11.580;2023-07-13T10:27:16;101487.13;;;30.24;96.73
35806;BME280;21925;44.608;11.580;2023-07-13T10:32:24;101472.97;;;29.39;100.00
35806;BME280;21925;44.608;11.580;2023-07-13T10:34:50;101460.63;;;29.88;100.00
35806;BME280;21925;44.608;11.580;2023-07-13T10:37:29;101454.41;;;30.23;100.00
35806;BME280;21925;44.608;11.580;2023-07-13T10:39:59;101454.31;;;30.36;99.97
35806;BME280;21925;44.608;11.580;2023-07-13T10:42:36;101462.66;;;30.39;100.00
35806;BME280;21925;44.608;11.580;2023-07-13T10:45:15;101455.66;;;30.53;97.25
35806;BME280;21925;44.608;11.580;2023-07-13T10:47:43;101451.19;;;30.43;97.21
35806;BME280;21925;44.608;11.580;2023-07-13T10:50:17;101448.22;;;30.46;99.13
35806;BME280;21925;44.608;11.580;2023-07-13T10:52:48;101445.25;;;30.10;97.91
35806;BME280;21925;44.608;11.580;2023-07-13T10:55:35;101447.16;;;30.22;96.66
35806;BME280;21925;44.608;11.580;2023-07-13T11:03:30;101424.88;;;30.55;92.05
35806;BME280;21925;44.608;11.580;2023-07-13T11:16:46;101427.84;;;31.53;86.63
35806;BME280;21925;44.608;11.580;2023-07-13T11:24:29;101416.53;;;33.32;73.47
35806;BME280;21925;44.608;11.580;2023-07-13T11:30:07;101418.91;;;33.48;75.05
35806;BME280;21925;44.608;11.580;2023-07-13T11:32:34;101418.59;;;34.13;73.95
35806;BME280;21925;44.608;11.580;2023-07-13T11:35:00;101432.31;;;33.71;72.45
35806;BME280;21925;44.608;11.580;2023-07-13T11:37:27;101425.22;;;33.67;73.81
35806;BME280;21925;44.608;11.580;2023-07-13T11:39:55;101421.81;;;33.77;74.76
35806;BME280;21925;44.608;11.580;2023-07-13T11:42:21;101419.94;;;33.74;73.33
35806;BME280;21925;44.608;11.580;2023-07-13T11:44:49;101412.22;;;33.37;73.92
35806;BME280;21925;44.608;11.580;2023-07-13T11:47:18;101403.34;;;33.21;75.33
35806;BME280;21925;44.608;11.580;2023-07-13T11:49:51;101386.13;;;33.76;73.48
35806;BME280;21925;44.608;11.580;2023-07-13T11:52:22;101393.50;;;34.31;71.88
35806;BME280;21925;44.608;11.580;2023-07-13T11:54:51;101402.13;;;34.86;69.70
35806;BME280;21925;44.608;11.580;2023-07-13T11:57:31;101396.56;;;34.97;66.73
35806;BME280;21925;44.608;11.580;2023-07-13T12:00:02;101395.25;;;34.97;66.21
35806;BME280;21925;44.608;11.580;2023-07-13T12:02:40;101397.66;;;35.89;64.66
35806;BME280;21925;44.608;11.580;2023-07-13T12:05:11;101392.72;;;36.21;61.51
35806;BME280;21925;44.608;11.580;2023-07-13T12:07:38;101379.59;;;36.34;61.46
35806;BME280;21925;44.608;11.580;2023-07-13T12:10:26;101381.91;;;35.74;62.45
35806;BME280;21925;44.608;11.580;2023-07-13T12:12:58;101357.97;;;35.41;61.90
35806;BME280;21925;44.608;11.580;2023-07-13T12:17:59;101361.06;;;35.93;59.60
35806;BME280;21925;44.608;11.580;2023-07-13T12:20:28;101365.56;;;36.00;57.95
35806;BME280;21925;44.608;11.580;2023-07-13T12:22:56;101362.56;;;35.33;59.09
35806;BME280;21925;44.608;11.580;2023-07-13T12:25:22;101360.50;;;36.15;57.98
35806;BME280;21925;44.608;11.580;2023-07-13T12:27:50;101361.59;;;36.23;57.26
35806;BME280;21925;44.608;11.580;2023-07-13T12:30:36;101346.53;;;36.64;56.03
35806;BME280;21925;44.608;11.580;2023-07-13T12:33:07;101349.41;;;37.22;55.16
35806;BME280;21925;44.608;11.580;2023-07-13T12:35:40;101343.75;;;37.66;53.37
35806;BME280;21925;44.608;11.580;2023-07-13T12:38:10;101335.84;;;37.06;55.02
35806;BME280;21925;44.608;11.580;2023-07-13T12:40:36;101331.69;;;37.18;55.46
35806;BME280;21925;44.608;11.580;2023-07-13T12:43:03;101335.97;;;36.86;54.61
35806;BME280;21925;44.608;11.580;2023-07-13T12:45:32;101334.09;;;37.36;53.50
35806;BME280;21925;44.608;11.580;2023-07-13T12:48:03;101326.28;;;36.67;54.13
35806;BME280;21925;44.608;11.580;2023-07-13T12:50:39;101322.28;;;37.01;54.91
35806;BME280;21925;44.608;11.580;2023-07-13T12:53:19;101323.03;;;36.91;55.06
35806;BME280;21925;44.608;11.580;2023-07-13T12:56:03;101313.28;;;38.39;51.61
35806;BME280;21925;44.608;11.580;2023-07-13T12:58:37;101324.50;;;37.50;51.94
35806;BME280;21925;44.608;11.580;2023-07-13T13:01:04;101323.38;;;37.20;53.18
35806;BME280;21925;44.608;11.580;2023-07-13T13:03:35;101322.59;;;37.25;52.85
35806;BME280;21925;44.608;11.580;2023-07-13T13:08:49;101308.66;;;37.93;55.10
35806;BME280;21925;44.608;11.580;2023-07-13T13:11:16;101304.81;;;39.31;54.13
35806;BME280;21925;44.608;11.580;2023-07-13T13:13:42;101294.88;;;39.67;53.25
35806;BME280;21925;44.608;11.580;2023-07-13T13:16:31;101301.09;;;40.06;50.98
35806;BME280;21925;44.608;11.580;2023-07-13T13:19:12;101288.78;;;39.76;47.70
35806;BME280;21925;44.608;11.580;2023-07-13T13:21:38;101285.50;;;39.96;50.51
35806;BME280;21925;44.608;11.580;2023-07-13T13:24:11;101285.78;;;40.21;50.38
35806;BME280;21925;44.608;11.580;2023-07-13T13:26:36;101274.03;;;38.86;49.64
35806;BME280;21925;44.608;11.580;2023-07-13T13:29:13;101273.16;;;39.07;50.21